Time,TemperatureF,DewpointF,PressureIn,WindDirection,WindDirectionDegrees,WindSpeedMPH,WindSpeedGustMPH,Humidity,HourlyPrecipIn,Conditions,Clouds,dailyrainin,SoftwareType,DateUTC
2018-04-19 00:07:00,61.3,42.0,30.04,West,276,0.0,1.0,50,0.00,,,0.00,weatherlink.com 1.10,2018-04-19 05:07:00,
2018-04-19 00:19:00,60.4,42.0,30.05,WSW,256,1.0,1.0,52,0.00,,,0.00,weatherlink.com 1.10,2018-04-19 05:19:00,
2018-04-19 00:34:00,59.9,41.0,30.06,NNE,26,2.0,5.0,50,0.00,,,0.00,weatherlink.com 1.10,2018-04-19 05:34:00,
2018-04-19 00:49:00,59.4,42.0,30.07,NNW,328,1.0,7.0,52,0.00,,,0.00,weatherlink.com 1.10,2018-04-19 05:49:00,
2018-04-19 01:04:00,58.4,41.0,30.07,West,280,1.0,6.0,53,0.00,,,0.00,weatherlink.com 1.10,2018-04-19 06:04:00,
2018-04-19 01:20:00,57.1,40.0,30.09,NNE,29,0.0,3.0,54,0.00,,,0.00,weatherlink.com 1.10,2018-04-19 06:20:00,
2018-04-19 01:35:00,55.9,40.0,30.10,SSW,208,1.0,3.0,56,0.00,,,0.00,weatherlink.com 1.10,2018-04-19 06:35:00,
2018-04-19 01:50:00,54.8,39.0,30.10,WNW,284,0.0,4.0,56,0.00,,,0.00,weatherlink.com 1.10,2018-04-19 06:50:00,
2018-04-19 02:05:00,54.1,39.0,30.10,NW,312,3.0,6.0,57,0.00,,,0.00,weatherlink.com 1.10,2018-04-19 07:05:00,
2018-04-19 02:20:00,53.4,39.0,30.11,North,359,3.0,8.0,58,0.00,,,0.00,weatherlink.com 1.10,2018-04-19 07:20:00,
2018-04-19 02:35:00,52.6,38.0,30.11,WSW,253,1.0,5.0,58,0.00,,,0.00,weatherlink.com 1.10,2018-04-19 07:35:00,
2018-04-19 02:50:00,51.5,36.0,30.12,WSW,239,0.0,11.0,55,0.00,,,0.00,weatherlink.com 1.10,2018-04-19 07:50:00,
2018-04-19 03:05:00,50.5,35.0,30.12,NNW,340,1.0,9.0,56,0.00,,,0.00,weatherlink.com 1.10,2018-04-19 08:05:00,
2018-04-19 03:20:00,49.8,34.0,30.14,North,350,1.0,6.0,55,0.00,,,0.00,weatherlink.com 1.10,2018-04-19 08:20:00,
2018-04-19 03:35:00,49.0,34.0,30.14,West,259,1.0,7.0,56,0.00,,,0.00,weatherlink.com 1.10,2018-04-19 08:35:00,
2018-04-19 03:50:00,48.2,34.0,30.16,SW,217,0.0,9.0,58,0.00,,,0.00,weatherlink.com 1.10,2018-04-19 08:50:00,
2018-04-19 04:05:00,47.1,31.0,30.16,North,4,1.0,10.0,55,0.00,,,0.00,weatherlink.com 1.10,2018-04-19 09:05:00,
2018-04-19 04:20:00,46.3,32.0,30.17,NW,325,2.0,5.0,57,0.00,,,0.00,weatherlink.com 1.10,2018-04-19 09:20:00,
2018-04-19 04:35:00,45.7,31.0,30.17,SSW,211,1.0,8.0,58,0.00,,,0.00,weatherlink.com 1.10,2018-04-19 09:35:00,
2018-04-19 04:50:00,45.4,32.0,30.18,ESE,107,0.0,3.0,60,0.00,,,0.00,weatherlink.com 1.10,2018-04-19 09:50:00,
2018-04-19 05:05:00,44.9,32.0,30.18,SW,232,0.0,3.0,61,0.00,,,0.00,weatherlink.com 1.10,2018-04-19 10:05:00,
2018-04-19 05:20:00,44.4,32.0,30.19,WNW,284,0.0,3.0,62,0.00,,,0.00,weatherlink.com 1.10,2018-04-19 10:20:00,
2018-04-19 05:35:00,44.0,32.0,30.20,West,281,0.0,2.0,63,0.00,,,0.00,weatherlink.com 1.10,2018-04-19 10:35:00,
2018-04-19 05:51:00,43.5,32.0,30.20,West,266,0.0,2.0,64,0.00,,,0.00,weatherlink.com 1.10,2018-04-19 10:51:00,
2018-04-19 06:06:00,43.1,32.0,30.21,WSW,257,0.0,1.0,65,0.00,,,0.00,weatherlink.com 1.10,2018-04-19 11:06:00,
2018-04-19 06:22:00,42.5,32.0,30.21,WSW,256,0.0,0.0,67,0.00,,,0.00,weatherlink.com 1.10,2018-04-19 11:22:00,
2018-04-19 06:36:00,42.1,32.0,30.22,WSW,256,0.0,1.0,68,0.00,,,0.00,weatherlink.com 1.10,2018-04-19 11:36:00,
2018-04-19 06:51:00,42.0,32.0,30.22,West,276,0.0,0.0,69,0.00,,,0.00,weatherlink.com 1.10,2018-04-19 11:51:00,
2018-04-19 07:06:00,42.7,33.0,30.23,West,276,0.0,2.0,69,0.00,,,0.00,weatherlink.com 1.10,2018-04-19 12:06:00,
2018-04-19 07:21:00,45.0,34.0,30.24,West,278,0.0,4.0,65,0.00,,,0.00,weatherlink.com 1.10,2018-04-19 12:21:00,
2018-04-19 07:36:00,46.8,34.0,30.25,NNW,343,0.0,6.0,61,0.00,,,0.00,weatherlink.com 1.10,2018-04-19 12:36:00,
2018-04-19 07:51:00,49.3,35.0,30.25,WNW,284,1.0,2.0,58,0.00,,,0.00,weatherlink.com 1.10,2018-04-19 12:51:00,
2018-04-19 08:06:00,51.1,35.0,30.25,East,89,0.0,5.0,54,0.00,,,0.00,weatherlink.com 1.10,2018-04-19 13:06:00,
2018-04-19 08:21:00,51.8,35.0,30.26,ENE,68,0.0,5.0,54,0.00,,,0.00,weatherlink.com 1.10,2018-04-19 13:21:00,
2018-04-19 08:36:00,52.4,35.0,30.26,East,82,1.0,8.0,52,0.00,,,0.00,weatherlink.com 1.10,2018-04-19 13:36:00,
2018-04-19 08:51:00,53.0,35.0,30.27,West,269,2.0,3.0,51,0.00,,,0.00,weatherlink.com 1.10,2018-04-19 13:51:00,
2018-04-19 09:06:00,53.2,35.0,30.27,ENE,61,1.0,4.0,51,0.00,,,0.00,weatherlink.com 1.10,2018-04-19 14:06:00,
2018-04-19 09:21:00,52.2,34.0,30.28,WNW,298,4.0,8.0,51,0.00,,,0.00,weatherlink.com 1.10,2018-04-19 14:21:00,
2018-04-19 09:36:00,52.1,35.0,30.29,West,269,0.0,3.0,52,0.00,,,0.00,weatherlink.com 1.10,2018-04-19 14:36:00,
2018-04-19 09:51:00,51.2,35.0,30.29,WNW,288,0.0,8.0,54,0.00,,,0.00,weatherlink.com 1.10,2018-04-19 14:51:00,
2018-04-19 10:06:00,51.5,36.0,30.30,ENE,66,3.0,8.0,55,0.00,,,0.00,weatherlink.com 1.10,2018-04-19 15:06:00,
2018-04-19 10:21:00,52.1,35.0,30.31,WNW,291,2.0,4.0,53,0.00,,,0.00,weatherlink.com 1.10,2018-04-19 15:21:00,
2018-04-19 10:36:00,51.5,36.0,30.32,SSE,159,0.0,6.0,55,0.00,,,0.00,weatherlink.com 1.10,2018-04-19 15:36:00,
2018-04-19 10:51:00,52.1,37.0,30.33,East,89,0.0,3.0,57,0.00,,,0.00,weatherlink.com 1.10,2018-04-19 15:51:00,
2018-04-19 11:06:00,53.0,35.0,30.34,East,92,1.0,4.0,51,0.00,,,0.00,weatherlink.com 1.10,2018-04-19 16:06:00,
2018-04-19 11:21:00,52.4,35.0,30.33,NE,55,1.0,5.0,52,0.00,,,0.00,weatherlink.com 1.10,2018-04-19 16:21:00,
2018-04-19 11:36:00,53.4,36.0,30.34,North,358,1.0,6.0,52,0.00,,,0.00,weatherlink.com 1.10,2018-04-19 16:36:00,
2018-04-19 11:51:00,55.0,35.0,30.34,NE,53,2.0,8.0,48,0.00,,,0.00,weatherlink.com 1.10,2018-04-19 16:51:00,
2018-04-19 12:06:00,55.5,36.0,30.34,West,280,3.0,5.0,48,0.00,,,0.00,weatherlink.com 1.10,2018-04-19 17:06:00,
2018-04-19 12:21:00,56.5,36.0,30.35,NNW,330,1.0,7.0,46,0.00,,,0.00,weatherlink.com 1.10,2018-04-19 17:21:00,